createdAt,value
2023-02-11T00:00:56.488Z,36.52
2023-02-11T00:03:26.340Z,36.48
2023-02-11T00:06:08.707Z,36.38
2023-02-11T00:08:39.665Z,36.38
2023-02-11T00:11:14.500Z,36.36
2023-02-11T00:13:45.452Z,36.40
2023-02-11T00:16:21.376Z,36.40
2023-02-11T00:18:49.163Z,36.43
2023-02-11T00:21:24.742Z,36.41
2023-02-11T00:23:58.726Z,36.33
2023-02-11T00:26:32.831Z,36.49
2023-02-11T00:29:00.777Z,36.49
2023-02-11T00:31:33.661Z,36.50
2023-02-11T00:34:00.783Z,36.45
2023-02-11T00:36:36.526Z,36.49
2023-02-11T00:39:10.366Z,36.44
2023-02-11T00:41:37.699Z,36.42
2023-02-11T00:44:05.195Z,36.46
2023-02-11T00:46:35.560Z,36.39
2023-02-11T00:49:06.156Z,36.51
2023-02-11T00:51:33.259Z,36.48
2023-02-11T00:54:01.259Z,36.50
2023-02-11T00:56:28.409Z,36.50
2023-02-11T00:58:55.674Z,36.45
2023-02-11T01:01:22.778Z,36.43
2023-02-11T01:03:53.194Z,36.50
2023-02-11T01:06:23.949Z,36.47
2023-02-11T01:08:51.000Z,36.48
2023-02-11T01:11:22.600Z,36.42
2023-02-11T01:13:50.979Z,36.46
2023-02-11T01:16:22.784Z,36.61
2023-02-11T01:18:50.300Z,36.47
2023-02-11T01:21:18.109Z,36.36
2023-02-11T01:24:05.203Z,36.40
2023-02-11T01:26:32.365Z,36.40
2023-02-11T01:29:36.877Z,36.38
2023-02-11T01:32:09.429Z,36.45
2023-02-11T01:34:36.843Z,36.41
2023-02-11T01:37:08.001Z,36.38
2023-02-11T01:39:40.767Z,36.46
2023-02-11T01:42:13.296Z,36.35
2023-02-11T01:44:43.640Z,36.40
2023-02-11T01:47:16.414Z,36.35
2023-02-11T01:50:07.714Z,36.30
2023-02-11T01:52:42.154Z,36.34
2023-02-11T01:55:13.393Z,36.33
2023-02-11T01:58:05.541Z,36.30
2023-02-11T02:00:40.150Z,36.33
2023-02-11T02:03:18.148Z,36.26
2023-02-11T02:06:06.444Z,36.28
2023-02-11T02:08:59.791Z,36.27
2023-02-11T02:11:29.980Z,36.31
2023-02-11T02:14:04.304Z,36.22
2023-02-11T02:16:35.425Z,36.22
2023-02-11T02:19:27.533Z,36.24
2023-02-11T02:22:19.848Z,36.22
2023-02-11T02:25:08.121Z,36.18
2023-02-11T02:34:31.639Z,36.19
2023-02-11T02:37:40.641Z,36.19
2023-02-11T02:40:41.404Z,36.18
2023-02-11T02:43:46.804Z,36.22
2023-02-11T02:46:54.694Z,36.21
2023-02-11T02:49:29.723Z,36.18
2023-02-11T02:52:07.080Z,36.16
2023-02-11T02:58:33.234Z,36.25
2023-02-11T03:01:54.924Z,36.21
2023-02-11T03:10:56.953Z,36.21
2023-02-11T03:13:32.622Z,36.23
2023-02-11T03:16:07.388Z,36.19
2023-02-11T03:18:43.433Z,36.15
2023-02-11T03:21:18.269Z,36.18
2023-02-11T03:27:44.795Z,36.20
2023-02-11T03:30:35.733Z,36.14
2023-02-11T03:33:40.378Z,36.16
2023-02-11T03:40:03.058Z,36.20
2023-02-11T03:42:39.133Z,36.19
2023-02-11T03:45:11.148Z,36.10
2023-02-11T03:54:36.805Z,36.14
2023-02-11T03:57:07.991Z,36.16
2023-02-11T04:00:01.414Z,36.11
2023-02-11T04:02:32.517Z,36.17
2023-02-11T04:08:34.917Z,36.11
2023-02-11T04:11:24.136Z,36.09
2023-02-11T04:14:13.976Z,36.15
2023-02-11T04:26:33.829Z,36.13
2023-02-11T04:32:22.763Z,36.11
2023-02-11T04:34:55.491Z,36.06
2023-02-11T04:37:26.437Z,36.10
2023-02-11T04:40:08.710Z,36.13
2023-02-11T04:45:57.689Z,36.14
2023-02-11T04:48:31.471Z,36.13
2023-02-11T04:51:17.417Z,36.13
2023-02-11T04:53:44.798Z,36.11
2023-02-11T04:56:12.243Z,36.13
2023-02-11T04:58:42.998Z,36.12
2023-02-11T05:01:12.510Z,36.24
2023-02-11T05:03:46.618Z,36.06
2023-02-11T05:06:18.460Z,35.92
2023-02-11T05:08:51.852Z,36.00
2023-02-11T05:11:44.168Z,35.92
2023-02-11T05:14:34.724Z,36.21
2023-02-11T05:17:21.621Z,36.15
2023-02-11T05:19:50.028Z,36.21
2023-02-11T05:22:22.192Z,36.06
2023-02-11T05:24:50.733Z,32.47
2023-02-11T05:27:18.274Z,31.41
2023-02-11T05:29:50.414Z,31.39
2023-02-11T05:32:17.627Z,30.79
2023-02-11T05:34:49.576Z,29.39
2023-02-11T05:37:38.888Z,31.91
2023-02-11T05:40:07.124Z,33.60
2023-02-11T05:42:34.320Z,34.25
2023-02-11T05:45:08.397Z,34.09
2023-02-11T05:47:39.218Z,34.46
2023-02-11T05:50:10.054Z,34.75
2023-02-11T05:52:42.845Z,34.81
2023-02-11T05:55:10.506Z,35.25
2023-02-11T05:57:41.532Z,35.29
2023-02-11T06:00:16.047Z,34.76
2023-02-11T06:02:47.257Z,34.90
2023-02-11T06:05:17.988Z,35.37
2023-02-11T06:07:45.542Z,35.43
2023-02-11T06:10:13.185Z,35.48
2023-02-11T06:12:41.488Z,35.29
2023-02-11T06:15:09.436Z,35.46
2023-02-11T06:17:41.121Z,35.67
2023-02-11T06:20:10.696Z,36.39
2023-02-11T06:22:38.553Z,36.77
2023-02-11T06:25:12.436Z,36.98
2023-02-11T06:27:45.840Z,37.21
2023-02-11T06:30:17.384Z,37.85
2023-02-11T06:32:48.835Z,37.89
2023-02-11T06:35:15.846Z,37.95
2023-02-11T06:37:43.397Z,37.96
2023-02-11T06:40:12.259Z,38.00
2023-02-11T06:42:39.624Z,38.15
2023-02-11T06:45:08.845Z,38.68
2023-02-11T06:47:37.729Z,38.37
2023-02-11T06:50:04.697Z,38.55
2023-02-11T06:52:36.088Z,38.49
2023-02-11T06:55:02.779Z,38.21
2023-02-11T06:57:31.128Z,38.58
2023-02-11T06:59:58.385Z,37.51
2023-02-11T07:02:25.590Z,37.66
2023-02-11T07:04:56.021Z,38.08
2023-02-11T07:07:22.712Z,38.18
2023-02-11T07:09:55.126Z,38.28
2023-02-11T07:12:24.747Z,38.22
2023-02-11T07:14:51.927Z,37.58
2023-02-11T07:17:22.100Z,37.56
2023-02-11T07:19:49.601Z,37.58
2023-02-11T07:22:16.467Z,37.60
2023-02-11T07:24:46.393Z,37.51
2023-02-11T07:27:16.219Z,37.62
2023-02-11T07:29:45.792Z,37.63
2023-02-11T07:32:15.530Z,37.67
2023-02-11T07:34:45.634Z,37.56
2023-02-11T07:37:15.655Z,37.57
2023-02-11T07:39:45.710Z,37.54
2023-02-11T07:42:15.243Z,37.57
2023-02-11T07:44:44.987Z,37.79
2023-02-11T07:49:57.852Z,38.39
2023-02-11T07:52:25.026Z,38.66
2023-02-11T07:57:30.803Z,38.79
2023-02-11T08:00:00.302Z,38.70
2023-02-11T08:02:30.054Z,39.00
2023-02-11T08:05:01.009Z,39.02
2023-02-11T08:07:28.682Z,39.16
2023-02-11T08:10:02.119Z,39.02
2023-02-11T08:12:28.906Z,38.95
2023-02-11T08:14:55.723Z,38.84
2023-02-11T08:17:23.019Z,38.84
2023-02-11T08:19:50.649Z,39.12
2023-02-11T08:22:20.611Z,38.85
2023-02-11T08:24:49.171Z,38.94
2023-02-11T08:27:23.607Z,38.86
2023-02-11T08:29:54.883Z,38.79
2023-02-11T08:32:26.551Z,38.78
2023-02-11T08:34:54.126Z,38.61
2023-02-11T08:37:22.025Z,38.74
2023-02-11T08:39:54.997Z,38.77
2023-02-11T08:42:22.035Z,38.77
2023-02-11T08:44:48.978Z,38.16
2023-02-11T08:47:19.114Z,37.18
2023-02-11T08:49:49.287Z,36.06
2023-02-11T08:52:19.726Z,37.47
2023-02-11T08:54:46.566Z,38.10
2023-02-11T08:57:16.522Z,38.17
2023-02-11T08:59:46.799Z,38.17
2023-02-11T09:02:14.704Z,38.20
2023-02-11T09:04:42.018Z,38.20
2023-02-11T09:07:08.722Z,38.13
2023-02-11T09:09:35.818Z,38.07
2023-02-11T09:12:06.514Z,38.14
2023-02-11T09:14:34.554Z,37.98
2023-02-11T09:17:01.976Z,37.97
2023-02-11T09:19:29.494Z,37.89
2023-02-11T09:22:00.107Z,37.81
2023-02-11T09:24:30.466Z,37.83
2023-02-11T09:27:01.162Z,37.77
2023-02-11T09:29:28.365Z,37.36
2023-02-11T09:31:58.728Z,37.74
2023-02-11T09:34:28.656Z,37.85
2023-02-11T09:36:55.885Z,38.70
2023-02-11T09:39:23.824Z,38.79
2023-02-11T09:42:20.578Z,38.23
2023-02-11T09:44:48.483Z,37.93
2023-02-11T09:50:44.724Z,39.56
2023-02-11T09:53:39.276Z,39.49
2023-02-11T09:56:13.137Z,39.21
2023-02-11T09:58:43.255Z,39.02
2023-02-11T10:01:45.623Z,38.77
2023-02-11T10:13:37.478Z,39.51
2023-02-11T10:16:26.725Z,39.73
2023-02-11T10:19:21.941Z,39.79
2023-02-11T10:22:15.131Z,39.68
2023-02-11T10:24:52.489Z,39.27
2023-02-11T10:27:23.681Z,39.19
2023-02-11T10:30:16.967Z,39.52
2023-02-11T10:33:07.307Z,39.65
2023-02-11T10:35:33.990Z,39.40
2023-02-11T10:38:01.089Z,38.89
2023-02-11T10:40:30.414Z,38.89
2023-02-11T10:43:22.773Z,38.89
2023-02-11T10:45:56.104Z,39.09
2023-02-11T10:48:47.177Z,39.26
2023-02-11T10:51:14.741Z,39.50
2023-02-11T10:53:46.821Z,39.86
2023-02-11T10:56:47.994Z,39.78
2023-02-11T10:59:34.840Z,39.84
2023-02-11T11:02:27.929Z,40.10
2023-02-11T11:05:20.101Z,40.34
2023-02-11T11:08:13.406Z,40.49
2023-02-11T11:10:44.611Z,40.55
2023-02-11T11:13:36.029Z,40.76
2023-02-11T11:16:12.862Z,40.84
2023-02-11T11:18:41.715Z,40.96
2023-02-11T11:21:16.816Z,41.01
2023-02-11T11:23:55.467Z,41.12
2023-02-11T11:26:23.048Z,41.12
2023-02-11T11:28:52.501Z,41.00
2023-02-11T11:31:24.339Z,41.05
2023-02-11T11:33:55.752Z,41.11
2023-02-11T11:36:31.299Z,41.61
2023-02-11T11:39:03.729Z,42.41
2023-02-11T11:41:36.334Z,42.69
2023-02-11T11:44:41.856Z,42.96
2023-02-11T11:47:11.936Z,42.92
2023-02-11T11:49:56.567Z,43.13
2023-02-11T11:52:32.908Z,43.09
2023-02-11T11:55:18.608Z,43.30
2023-02-11T11:57:45.576Z,43.31
2023-02-11T12:00:24.277Z,43.03
2023-02-11T12:03:16.126Z,43.14
2023-02-11T12:05:50.221Z,43.19
2023-02-11T12:08:22.595Z,42.74
2023-02-11T12:11:05.268Z,42.73
2023-02-11T12:13:36.894Z,42.83
2023-02-11T12:16:33.579Z,42.77
2023-02-11T12:19:10.716Z,42.75
2023-02-11T12:21:51.518Z,42.71
2023-02-11T12:24:49.395Z,42.82
2023-02-11T12:27:39.321Z,42.88
2023-02-11T12:30:41.568Z,42.89
2023-02-11T12:33:29.982Z,42.98
2023-02-11T12:36:05.848Z,43.02
2023-02-11T12:38:57.476Z,42.88
2023-02-11T12:41:37.853Z,43.03
2023-02-11T12:44:16.582Z,42.82
2023-02-11T12:47:24.854Z,42.76
2023-02-11T12:50:24.721Z,42.74
2023-02-11T12:53:06.311Z,42.66
2023-02-11T12:55:48.102Z,42.59
2023-02-11T12:58:27.331Z,42.66
2023-02-11T13:01:11.276Z,42.57
2023-02-11T13:03:46.276Z,42.41
2023-02-11T13:06:17.629Z,42.33
2023-02-11T13:08:58.018Z,42.24
2023-02-11T13:11:27.716Z,42.17
2023-02-11T13:14:14.190Z,42.01
2023-02-11T13:16:47.326Z,41.90
2023-02-11T13:19:44.370Z,41.72
2023-02-11T13:22:20.335Z,41.56
2023-02-11T13:25:06.031Z,41.12
2023-02-11T13:28:15.068Z,41.16
2023-02-11T13:30:42.623Z,41.10
2023-02-11T13:33:37.061Z,40.93
2023-02-11T13:36:07.821Z,41.04
2023-02-11T13:38:40.200Z,41.04
2023-02-11T13:41:33.841Z,40.96
2023-02-11T13:44:12.190Z,41.01
2023-02-11T13:46:56.560Z,41.06
2023-02-11T13:49:38.629Z,41.20
2023-02-11T13:52:18.809Z,41.32
2023-02-11T13:54:51.518Z,41.01
2023-02-11T13:57:24.204Z,40.95
2023-02-11T14:00:03.856Z,40.91
2023-02-11T14:02:40.021Z,40.91
2023-02-11T14:05:16.353Z,40.95
2023-02-11T14:08:06.261Z,41.00
2023-02-11T14:11:04.548Z,41.09
2023-02-11T14:13:56.089Z,41.00
2023-02-11T14:16:37.826Z,40.89
2023-02-11T14:19:10.549Z,40.56
2023-02-11T14:21:43.381Z,40.53
2023-02-11T14:24:13.611Z,40.54
2023-02-11T14:27:00.833Z,40.88
2023-02-11T14:29:54.151Z,41.14
2023-02-11T14:32:43.038Z,41.23
2023-02-11T14:35:25.315Z,41.37
2023-02-11T14:38:01.214Z,41.40
2023-02-11T14:40:49.297Z,41.35
2023-02-11T14:43:36.296Z,41.35
2023-02-11T14:46:10.769Z,41.40
2023-02-11T14:48:45.059Z,41.50
2023-02-11T14:51:20.176Z,42.06
2023-02-11T14:53:50.910Z,41.88
2023-02-11T14:56:29.185Z,41.52
2023-02-11T14:58:59.827Z,41.49
2023-02-11T15:01:41.152Z,41.28
2023-02-11T15:04:26.644Z,41.27
2023-02-11T15:06:55.926Z,41.22
2023-02-11T15:09:40.644Z,41.11
2023-02-11T15:12:27.056Z,41.12
2023-02-11T15:14:56.819Z,41.00
2023-02-11T15:17:26.247Z,40.93
2023-02-11T15:20:00.382Z,41.05
2023-02-11T15:22:36.088Z,41.36
2023-02-11T15:25:14.638Z,41.10
2023-02-11T15:27:47.879Z,41.08
2023-02-11T15:30:24.047Z,40.88
2023-02-11T15:32:59.226Z,40.94
2023-02-11T15:35:39.520Z,40.88
2023-02-11T15:38:11.153Z,40.67
2023-02-11T15:40:52.157Z,40.86
2023-02-11T15:43:40.150Z,40.99
2023-02-11T15:46:14.176Z,40.98
2023-02-11T15:48:48.314Z,40.92
2023-02-11T15:51:21.450Z,40.97
2023-02-11T15:53:49.569Z,41.07
2023-02-11T15:56:22.629Z,41.01
2023-02-11T15:58:49.795Z,40.94
2023-02-11T16:01:17.016Z,40.75
2023-02-11T16:03:50.191Z,41.02
2023-02-11T16:06:26.816Z,40.78
2023-02-11T16:09:21.198Z,40.71
2023-02-11T16:11:50.504Z,40.66
2023-02-11T16:14:27.964Z,40.65
2023-02-11T16:17:35.382Z,40.76
2023-02-11T16:20:02.346Z,40.98
2023-02-11T16:22:31.787Z,40.68
2023-02-11T16:25:02.528Z,40.74
2023-02-11T16:27:34.621Z,40.74
2023-02-11T16:30:01.672Z,41.11
2023-02-11T16:32:35.760Z,40.78
2023-02-11T16:35:11.472Z,40.54
2023-02-11T16:37:42.670Z,40.72
2023-02-11T16:40:13.505Z,40.66
2023-02-11T16:42:43.265Z,41.04
2023-02-11T16:45:18.216Z,40.63
2023-02-11T16:48:32.860Z,40.93
2023-02-11T16:51:00.186Z,42.06
2023-02-11T16:56:47.211Z,41.71
2023-02-11T16:59:16.318Z,41.30
2023-02-11T17:01:44.573Z,41.39
2023-02-11T17:04:31.759Z,40.99
2023-02-11T17:07:37.233Z,41.03
2023-02-11T17:10:08.400Z,41.18
2023-02-11T17:12:36.004Z,40.98
2023-02-11T17:15:19.092Z,40.88
2023-02-11T17:17:55.557Z,40.89
2023-02-11T17:20:22.957Z,40.85
2023-02-11T17:23:00.406Z,41.02
2023-02-11T17:25:32.307Z,41.07
2023-02-11T17:28:06.583Z,40.92
2023-02-11T17:30:40.842Z,40.82
2023-02-11T17:33:23.081Z,40.76
2023-02-11T17:36:19.001Z,40.84
2023-02-11T17:38:47.151Z,40.64
2023-02-11T17:44:50.817Z,40.15
2023-02-11T17:47:31.840Z,40.17
2023-02-11T17:53:45.390Z,40.22
2023-02-11T17:56:15.585Z,40.49
2023-02-11T17:58:46.362Z,40.39
2023-02-11T18:01:20.004Z,40.55
2023-02-11T18:03:49.900Z,40.53
2023-02-11T18:06:54.312Z,40.39
2023-02-11T18:09:22.562Z,39.98
2023-02-11T18:11:50.290Z,40.06
2023-02-11T18:14:21.536Z,40.24
2023-02-11T18:16:55.350Z,40.67
2023-02-11T18:19:22.447Z,40.81
2023-02-11T18:21:49.305Z,40.64
2023-02-11T18:24:21.213Z,41.10
2023-02-11T18:26:50.405Z,40.59
2023-02-11T18:29:17.942Z,40.44
2023-02-11T18:31:48.457Z,40.22
2023-02-11T18:34:20.100Z,40.06
2023-02-11T18:36:47.039Z,39.86
2023-02-11T18:39:13.906Z,39.76
2023-02-11T18:41:43.974Z,39.65
2023-02-11T18:44:12.529Z,39.55
2023-02-11T18:46:45.624Z,39.45
2023-02-11T18:49:12.360Z,39.37
2023-02-11T18:51:46.205Z,39.25
2023-02-11T18:54:13.577Z,39.14
2023-02-11T18:56:42.826Z,39.03
2023-02-11T19:02:31.645Z,38.90
2023-02-11T19:05:01.134Z,39.04
2023-02-11T19:07:34.706Z,39.06
2023-02-11T19:10:13.059Z,38.86
2023-02-11T19:12:42.595Z,38.77
2023-02-11T19:15:12.560Z,38.72
2023-02-11T19:17:50.714Z,38.66
2023-02-11T19:21:02.830Z,38.85
2023-02-11T19:23:32.172Z,39.07
2023-02-11T19:26:03.996Z,39.36
2023-02-11T19:38:58.316Z,39.13
2023-02-11T19:41:45.274Z,39.01
2023-02-11T19:50:38.230Z,38.71
2023-02-11T19:53:27.126Z,38.71
2023-02-11T19:55:56.010Z,38.56
2023-02-11T19:58:28.137Z,38.53
2023-02-11T20:04:12.324Z,38.39
2023-02-11T20:07:01.152Z,38.23
2023-02-11T20:20:05.564Z,38.09
2023-02-11T20:26:01.066Z,38.03
2023-02-11T20:44:18.016Z,37.95
2023-02-11T20:56:27.710Z,37.83
2023-02-11T20:59:36.673Z,38.01
2023-02-11T21:06:03.717Z,38.10
2023-02-11T21:08:51.049Z,37.97
2023-02-11T21:11:40.297Z,38.00
2023-02-11T21:24:41.249Z,38.05
2023-02-11T21:27:47.686Z,37.93
2023-02-11T21:30:54.259Z,37.94
2023-02-11T21:33:52.828Z,38.04
2023-02-11T21:37:00.979Z,37.93
2023-02-11T21:39:37.736Z,37.94
2023-02-11T21:42:09.652Z,37.97
2023-02-11T21:44:38.536Z,38.06
2023-02-11T21:54:13.752Z,38.01
2023-02-11T21:56:44.964Z,38.07
2023-02-11T22:02:45.062Z,37.98
2023-02-11T22:05:33.979Z,37.91
2023-02-11T22:08:43.070Z,38.02
2023-02-11T22:14:50.734Z,37.76
2023-02-11T22:21:17.788Z,38.01
2023-02-11T22:24:23.656Z,37.97
2023-02-11T22:27:36.110Z,37.98
2023-02-11T22:33:32.198Z,38.07
2023-02-11T22:39:59.999Z,38.08
2023-02-11T22:49:02.715Z,38.23
2023-02-11T22:51:35.828Z,38.54
2023-02-11T22:54:45.130Z,38.36
2023-02-11T23:04:26.739Z,38.23
2023-02-11T23:16:42.101Z,38.24
2023-02-11T23:22:49.520Z,38.22
2023-02-11T23:32:17.063Z,38.34
2023-02-11T23:42:05.454Z,38.21
2023-02-11T23:44:41.165Z,38.36
2023-02-11T23:47:46.779Z,38.25
2023-02-11T23:50:35.907Z,38.28
2023-02-11T23:53:48.353Z,38.25
2023-02-11T23:56:38.024Z,38.29
